Portada
METAR-TAF:

METAR-TAF

Aeropuertos :

Kanoya, Japón

latitud: 31-22N, longitud: 130-50E, altitud: 65 m

Observación

El informe se hizo hace 2 horas y 26 minutos, a las 13:28 UTC
Viento 6 kt del noreste
Temperatura 10°C
Humedad 87%
Presión 1020 hPa
Visibilidad: 8000 m
Escasas nubes a una altura de 300 ft
Cielo nuboso a una altura de 900 ft
Cielo cubierto a una altura de 4500 ft
lluvia ligera

METAR: RJFY 281328Z 05006KT 8000 -RA FEW003 BKN009 OVC045 10/08 Q1020 RMK 2ST003 5ST009 8SC045 A3013

Hora: 00:54 (15:54 UTC)


TAF: falta

Observaciones y pronósticos meteorológicos de más de 4000 aeropuertos (mensajes METAR y TAF).

Los puntos amarillos y rojos representan las estaciones disponibles.

Ponga el ratón en el punto deseado para ver el nombre de la estación.

Haga clic para ver las observaciones y los pronósticos meteorológicos.

Para cambiar el mapa : haga clic en los botones verdes con una cruz de color negro para hacer un zoom, en el botón verde con un guión para alejar o en las flechas verdes para mapas adyacentes.


METAR-TAF: